sensor_id;sensor_type;location;lat;lon;timestamp;P1;durP1;ratioP1;P2;durP2;ratioP2
28760;SDS011;15917;50.014;8.352;2023-07-02T00:02:08;7.00;;;2.00;;
28760;SDS011;15917;50.014;8.352;2023-07-02T00:04:33;5.72;;;1.63;;
28760;SDS011;15917;50.014;8.352;2023-07-02T00:06:59;3.55;;;1.75;;
28760;SDS011;15917;50.014;8.352;2023-07-02T00:09:25;3.47;;;1.35;;
28760;SDS011;15917;50.014;8.352;2023-07-02T00:11:51;6.10;;;1.67;;
28760;SDS011;15917;50.014;8.352;2023-07-02T00:14:16;4.80;;;1.48;;
28760;SDS011;15917;50.014;8.352;2023-07-02T00:16:43;6.15;;;1.42;;
28760;SDS011;15917;50.014;8.352;2023-07-02T00:19:11;7.07;;;1.30;;
28760;SDS011;15917;50.014;8.352;2023-07-02T00:21:39;5.25;;;1.42;;
28760;SDS011;15917;50.014;8.352;2023-07-02T00:24:05;6.70;;;1.42;;
28760;SDS011;15917;50.014;8.352;2023-07-02T00:26:32;6.22;;;1.50;;
28760;SDS011;15917;50.014;8.352;2023-07-02T00:28:57;10.18;;;1.63;;
28760;SDS011;15917;50.014;8.352;2023-07-02T00:31:23;7.05;;;1.30;;
28760;SDS011;15917;50.014;8.352;2023-07-02T00:33:49;6.55;;;1.65;;
28760;SDS011;15917;50.014;8.352;2023-07-02T00:36:15;3.33;;;1.50;;
28760;SDS011;15917;50.014;8.352;2023-07-02T00:38:41;6.07;;;1.27;;
28760;SDS011;15917;50.014;8.352;2023-07-02T00:41:09;7.30;;;1.63;;
28760;SDS011;15917;50.014;8.352;2023-07-02T00:43:35;9.27;;;1.70;;
28760;SDS011;15917;50.014;8.352;2023-07-02T00:46:01;6.13;;;1.45;;
28760;SDS011;15917;50.014;8.352;2023-07-02T00:48:28;7.53;;;2.00;;
28760;SDS011;15917;50.014;8.352;2023-07-02T00:50:55;8.15;;;1.40;;
28760;SDS011;15917;50.014;8.352;2023-07-02T00:53:21;9.23;;;1.88;;
28760;SDS011;15917;50.014;8.352;2023-07-02T00:55:47;5.68;;;1.58;;
28760;SDS011;15917;50.014;8.352;2023-07-02T00:58:13;7.32;;;1.92;;
28760;SDS011;15917;50.014;8.352;2023-07-02T01:00:41;4.53;;;1.45;;
28760;SDS011;15917;50.014;8.352;2023-07-02T01:03:08;4.93;;;1.60;;
28760;SDS011;15917;50.014;8.352;2023-07-02T01:05:33;5.80;;;2.03;;
28760;SDS011;15917;50.014;8.352;2023-07-02T01:08:02;8.63;;;2.95;;
28760;SDS011;15917;50.014;8.352;2023-07-02T01:10:29;4.15;;;1.85;;
28760;SDS011;15917;50.014;8.352;2023-07-02T01:12:56;4.43;;;2.20;;
28760;SDS011;15917;50.014;8.352;2023-07-02T01:15:28;7.22;;;2.15;;
28760;SDS011;15917;50.014;8.352;2023-07-02T01:17:54;9.27;;;2.15;;
28760;SDS011;15917;50.014;8.352;2023-07-02T01:20:20;6.47;;;1.95;;
28760;SDS011;15917;50.014;8.352;2023-07-02T01:22:46;4.20;;;2.00;;
28760;SDS011;15917;50.014;8.352;2023-07-02T01:25:16;7.97;;;1.95;;
28760;SDS011;15917;50.014;8.352;2023-07-02T01:27:42;16.40;;;3.22;;
28760;SDS011;15917;50.014;8.352;2023-07-02T01:30:08;7.72;;;2.72;;
28760;SDS011;15917;50.014;8.352;2023-07-02T01:32:35;5.35;;;2.40;;
28760;SDS011;15917;50.014;8.352;2023-07-02T01:35:02;13.40;;;2.38;;
28760;SDS011;15917;50.014;8.352;2023-07-02T01:37:27;13.85;;;4.10;;
28760;SDS011;15917;50.014;8.352;2023-07-02T01:39:53;8.30;;;2.10;;
28760;SDS011;15917;50.014;8.352;2023-07-02T01:42:19;6.50;;;2.90;;
28760;SDS011;15917;50.014;8.352;2023-07-02T01:44:46;6.95;;;1.85;;
28760;SDS011;15917;50.014;8.352;2023-07-02T01:47:14;14.48;;;3.05;;
28760;SDS011;15917;50.014;8.352;2023-07-02T01:49:40;13.07;;;2.78;;
28760;SDS011;15917;50.014;8.352;2023-07-02T01:52:06;10.40;;;2.50;;
28760;SDS011;15917;50.014;8.352;2023-07-02T01:54:32;15.25;;;2.65;;
28760;SDS011;15917;50.014;8.352;2023-07-02T01:56:59;8.52;;;1.98;;
28760;SDS011;15917;50.014;8.352;2023-07-02T01:59:25;8.40;;;2.50;;
28760;SDS011;15917;50.014;8.352;2023-07-02T02:01:51;10.70;;;2.42;;
28760;SDS011;15917;50.014;8.352;2023-07-02T02:04:17;6.95;;;2.55;;
28760;SDS011;15917;50.014;8.352;2023-07-02T02:06:44;9.40;;;2.50;;
28760;SDS011;15917;50.014;8.352;2023-07-02T02:09:10;9.32;;;2.28;;
28760;SDS011;15917;50.014;8.352;2023-07-02T02:11:40;6.47;;;2.75;;
28760;SDS011;15917;50.014;8.352;2023-07-02T02:14:07;10.65;;;2.78;;
28760;SDS011;15917;50.014;8.352;2023-07-02T02:16:33;9.73;;;3.00;;
28760;SDS011;15917;50.014;8.352;2023-07-02T02:18:59;11.35;;;3.40;;
28760;SDS011;15917;50.014;8.352;2023-07-02T02:21:25;9.43;;;3.90;;
28760;SDS011;15917;50.014;8.352;2023-07-02T02:23:51;11.40;;;3.17;;
28760;SDS011;15917;50.014;8.352;2023-07-02T02:26:17;11.80;;;3.90;;
28760;SDS011;15917;50.014;8.352;2023-07-02T02:28:43;14.38;;;3.63;;
28760;SDS011;15917;50.014;8.352;2023-07-02T02:31:09;9.63;;;3.83;;
28760;SDS011;15917;50.014;8.352;2023-07-02T02:33:35;14.65;;;4.28;;
28760;SDS011;15917;50.014;8.352;2023-07-02T02:36:02;14.57;;;3.67;;
28760;SDS011;15917;50.014;8.352;2023-07-02T02:38:29;8.73;;;3.78;;
28760;SDS011;15917;50.014;8.352;2023-07-02T02:40:55;9.73;;;3.70;;
28760;SDS011;15917;50.014;8.352;2023-07-02T02:43:20;8.55;;;3.72;;
28760;SDS011;15917;50.014;8.352;2023-07-02T02:45:48;13.80;;;3.88;;
28760;SDS011;15917;50.014;8.352;2023-07-02T02:48:13;9.40;;;3.60;;
28760;SDS011;15917;50.014;8.352;2023-07-02T02:50:39;7.97;;;3.47;;
28760;SDS011;15917;50.014;8.352;2023-07-02T02:53:09;9.27;;;3.90;;
28760;SDS011;15917;50.014;8.352;2023-07-02T02:55:35;7.55;;;3.60;;
28760;SDS011;15917;50.014;8.352;2023-07-02T02:58:01;6.05;;;3.13;;
28760;SDS011;15917;50.014;8.352;2023-07-02T03:00:27;12.00;;;3.30;;
28760;SDS011;15917;50.014;8.352;2023-07-02T03:02:53;14.38;;;4.68;;
28760;SDS011;15917;50.014;8.352;2023-07-02T03:05:18;10.98;;;3.53;;
28760;SDS011;15917;50.014;8.352;2023-07-02T03:07:44;10.02;;;3.75;;
28760;SDS011;15917;50.014;8.352;2023-07-02T03:10:10;7.95;;;3.67;;
28760;SDS011;15917;50.014;8.352;2023-07-02T03:12:35;10.90;;;3.58;;
28760;SDS011;15917;50.014;8.352;2023-07-02T03:15:01;19.38;;;5.43;;
28760;SDS011;15917;50.014;8.352;2023-07-02T03:17:27;10.93;;;3.88;;
28760;SDS011;15917;50.014;8.352;2023-07-02T03:19:53;8.55;;;3.78;;
28760;SDS011;15917;50.014;8.352;2023-07-02T03:22:18;14.23;;;3.95;;
28760;SDS011;15917;50.014;8.352;2023-07-02T03:24:44;16.85;;;4.72;;
28760;SDS011;15917;50.014;8.352;2023-07-02T03:27:09;9.65;;;4.22;;
28760;SDS011;15917;50.014;8.352;2023-07-02T03:29:35;12.43;;;4.03;;
28760;SDS011;15917;50.014;8.352;2023-07-02T03:34:29;12.98;;;4.68;;
28760;SDS011;15917;50.014;8.352;2023-07-02T03:36:55;11.68;;;5.43;;
28760;SDS011;15917;50.014;8.352;2023-07-02T03:39:21;12.00;;;4.90;;
28760;SDS011;15917;50.014;8.352;2023-07-02T03:41:46;13.25;;;5.13;;
28760;SDS011;15917;50.014;8.352;2023-07-02T03:44:12;16.45;;;5.30;;
28760;SDS011;15917;50.014;8.352;2023-07-02T03:46:37;18.15;;;5.88;;
28760;SDS011;15917;50.014;8.352;2023-07-02T03:49:03;15.77;;;5.28;;
28760;SDS011;15917;50.014;8.352;2023-07-02T03:51:29;16.30;;;5.95;;
28760;SDS011;15917;50.014;8.352;2023-07-02T03:53:55;18.20;;;6.38;;
28760;SDS011;15917;50.014;8.352;2023-07-02T03:56:22;21.38;;;6.43;;
28760;SDS011;15917;50.014;8.352;2023-07-02T03:58:48;17.85;;;6.18;;
28760;SDS011;15917;50.014;8.352;2023-07-02T04:01:14;15.48;;;5.88;;
28760;SDS011;15917;50.014;8.352;2023-07-02T04:03:41;14.00;;;5.85;;
28760;SDS011;15917;50.014;8.352;2023-07-02T04:06:12;22.23;;;6.20;;
28760;SDS011;15917;50.014;8.352;2023-07-02T04:08:38;15.98;;;6.15;;
28760;SDS011;15917;50.014;8.352;2023-07-02T04:11:04;18.13;;;6.03;;
28760;SDS011;15917;50.014;8.352;2023-07-02T04:13:29;22.48;;;5.40;;
28760;SDS011;15917;50.014;8.352;2023-07-02T04:15:55;12.18;;;5.68;;
28760;SDS011;15917;50.014;8.352;2023-07-02T04:18:20;14.25;;;5.25;;
28760;SDS011;15917;50.014;8.352;2023-07-02T04:20:46;15.80;;;6.32;;
28760;SDS011;15917;50.014;8.352;2023-07-02T04:23:11;13.25;;;5.75;;
28760;SDS011;15917;50.014;8.352;2023-07-02T04:25:37;16.17;;;6.32;;
28760;SDS011;15917;50.014;8.352;2023-07-02T04:28:03;15.52;;;6.13;;
28760;SDS011;15917;50.014;8.352;2023-07-02T04:30:28;16.33;;;6.43;;
28760;SDS011;15917;50.014;8.352;2023-07-02T04:32:54;14.88;;;5.90;;
28760;SDS011;15917;50.014;8.352;2023-07-02T04:35:19;14.95;;;6.15;;
28760;SDS011;15917;50.014;8.352;2023-07-02T04:37:45;17.30;;;6.25;;
28760;SDS011;15917;50.014;8.352;2023-07-02T04:40:11;17.08;;;6.88;;
28760;SDS011;15917;50.014;8.352;2023-07-02T04:42:37;21.55;;;7.45;;
28760;SDS011;15917;50.014;8.352;2023-07-02T04:45:06;20.02;;;6.93;;
28760;SDS011;15917;50.014;8.352;2023-07-02T04:47:34;14.23;;;6.32;;
28760;SDS011;15917;50.014;8.352;2023-07-02T04:50:00;18.35;;;6.50;;
28760;SDS011;15917;50.014;8.352;2023-07-02T04:52:26;12.48;;;5.43;;
28760;SDS011;15917;50.014;8.352;2023-07-02T04:54:52;14.32;;;6.00;;
28760;SDS011;15917;50.014;8.352;2023-07-02T04:57:17;15.18;;;5.72;;
28760;SDS011;15917;50.014;8.352;2023-07-02T04:59:43;19.33;;;6.85;;
28760;SDS011;15917;50.014;8.352;2023-07-02T05:02:09;14.10;;;6.32;;
28760;SDS011;15917;50.014;8.352;2023-07-02T05:04:35;15.80;;;6.38;;
28760;SDS011;15917;50.014;8.352;2023-07-02T05:07:02;17.23;;;6.10;;
28760;SDS011;15917;50.014;8.352;2023-07-02T05:09:29;19.30;;;6.37;;
28760;SDS011;15917;50.014;8.352;2023-07-02T05:11:55;16.63;;;6.63;;
28760;SDS011;15917;50.014;8.352;2023-07-02T05:14:21;11.23;;;5.93;;
28760;SDS011;15917;50.014;8.352;2023-07-02T05:16:47;17.42;;;6.75;;
28760;SDS011;15917;50.014;8.352;2023-07-02T05:19:13;19.50;;;7.03;;
28760;SDS011;15917;50.014;8.352;2023-07-02T05:21:39;19.42;;;7.20;;
28760;SDS011;15917;50.014;8.352;2023-07-02T05:24:05;17.15;;;7.22;;
28760;SDS011;15917;50.014;8.352;2023-07-02T05:26:31;20.98;;;6.65;;
28760;SDS011;15917;50.014;8.352;2023-07-02T05:28:57;20.50;;;7.13;;
28760;SDS011;15917;50.014;8.352;2023-07-02T05:31:23;20.63;;;7.15;;
28760;SDS011;15917;50.014;8.352;2023-07-02T05:33:48;20.70;;;7.28;;
28760;SDS011;15917;50.014;8.352;2023-07-02T05:36:14;16.45;;;8.00;;
28760;SDS011;15917;50.014;8.352;2023-07-02T05:38:40;25.23;;;8.25;;
28760;SDS011;15917;50.014;8.352;2023-07-02T05:41:05;19.00;;;8.07;;
28760;SDS011;15917;50.014;8.352;2023-07-02T05:43:31;18.90;;;7.43;;
28760;SDS011;15917;50.014;8.352;2023-07-02T05:45:59;15.30;;;6.90;;
28760;SDS011;15917;50.014;8.352;2023-07-02T05:48:25;19.38;;;7.35;;
28760;SDS011;15917;50.014;8.352;2023-07-02T05:50:52;19.92;;;7.47;;
28760;SDS011;15917;50.014;8.352;2023-07-02T05:53:18;24.45;;;8.07;;
28760;SDS011;15917;50.014;8.352;2023-07-02T05:55:43;25.00;;;8.07;;
28760;SDS011;15917;50.014;8.352;2023-07-02T05:58:10;20.52;;;7.78;;
28760;SDS011;15917;50.014;8.352;2023-07-02T06:00:35;21.80;;;7.22;;
28760;SDS011;15917;50.014;8.352;2023-07-02T06:03:01;22.73;;;7.80;;
28760;SDS011;15917;50.014;8.352;2023-07-02T06:05:27;17.65;;;8.45;;
28760;SDS011;15917;50.014;8.352;2023-07-02T06:07:52;26.15;;;9.45;;
28760;SDS011;15917;50.014;8.352;2023-07-02T06:10:18;32.03;;;11.30;;
28760;SDS011;15917;50.014;8.352;2023-07-02T06:12:44;23.23;;;9.98;;
28760;SDS011;15917;50.014;8.352;2023-07-02T06:15:10;25.08;;;9.50;;
28760;SDS011;15917;50.014;8.352;2023-07-02T06:17:36;24.67;;;10.23;;
28760;SDS011;15917;50.014;8.352;2023-07-02T06:20:05;21.73;;;9.18;;
28760;SDS011;15917;50.014;8.352;2023-07-02T06:22:31;21.60;;;9.55;;
28760;SDS011;15917;50.014;8.352;2023-07-02T06:24:57;25.67;;;9.82;;
28760;SDS011;15917;50.014;8.352;2023-07-02T06:27:22;22.45;;;9.80;;
28760;SDS011;15917;50.014;8.352;2023-07-02T06:29:48;30.95;;;11.10;;
28760;SDS011;15917;50.014;8.352;2023-07-02T06:32:15;23.85;;;10.00;;
28760;SDS011;15917;50.014;8.352;2023-07-02T06:34:41;27.92;;;9.88;;
28760;SDS011;15917;50.014;8.352;2023-07-02T06:37:06;32.05;;;10.43;;
28760;SDS011;15917;50.014;8.352;2023-07-02T06:39:32;16.48;;;7.10;;
28760;SDS011;15917;50.014;8.352;2023-07-02T06:41:58;23.23;;;9.20;;
28760;SDS011;15917;50.014;8.352;2023-07-02T06:44:28;24.40;;;9.05;;
28760;SDS011;15917;50.014;8.352;2023-07-02T06:46:53;21.42;;;10.02;;
28760;SDS011;15917;50.014;8.352;2023-07-02T06:49:19;23.90;;;9.95;;
28760;SDS011;15917;50.014;8.352;2023-07-02T06:51:45;19.63;;;10.10;;
28760;SDS011;15917;50.014;8.352;2023-07-02T06:54:11;27.63;;;10.90;;
28760;SDS011;15917;50.014;8.352;2023-07-02T06:56:38;32.70;;;10.82;;
28760;SDS011;15917;50.014;8.352;2023-07-02T06:59:03;28.38;;;11.48;;
28760;SDS011;15917;50.014;8.352;2023-07-02T07:01:29;32.88;;;12.00;;
28760;SDS011;15917;50.014;8.352;2023-07-02T07:03:55;38.05;;;11.27;;
28760;SDS011;15917;50.014;8.352;2023-07-02T07:06:20;26.33;;;12.35;;
28760;SDS011;15917;50.014;8.352;2023-07-02T07:08:46;26.67;;;10.95;;
28760;SDS011;15917;50.014;8.352;2023-07-02T07:11:11;26.27;;;11.50;;
28760;SDS011;15917;50.014;8.352;2023-07-02T07:13:37;29.58;;;10.93;;
28760;SDS011;15917;50.014;8.352;2023-07-02T07:16:02;26.35;;;11.38;;
28760;SDS011;15917;50.014;8.352;2023-07-02T07:18:28;30.20;;;12.60;;
28760;SDS011;15917;50.014;8.352;2023-07-02T07:20:54;34.10;;;11.32;;
28760;SDS011;15917;50.014;8.352;2023-07-02T07:23:20;28.40;;;10.63;;
28760;SDS011;15917;50.014;8.352;2023-07-02T07:25:46;33.10;;;11.88;;
28760;SDS011;15917;50.014;8.352;2023-07-02T07:28:11;31.60;;;11.90;;
28760;SDS011;15917;50.014;8.352;2023-07-02T07:30:41;25.77;;;10.85;;
28760;SDS011;15917;50.014;8.352;2023-07-02T07:33:07;44.78;;;11.43;;
28760;SDS011;15917;50.014;8.352;2023-07-02T07:35:32;31.08;;;10.20;;
28760;SDS011;15917;50.014;8.352;2023-07-02T07:37:58;25.85;;;11.75;;
28760;SDS011;15917;50.014;8.352;2023-07-02T07:40:23;31.73;;;11.43;;
28760;SDS011;15917;50.014;8.352;2023-07-02T07:42:49;32.97;;;11.13;;
28760;SDS011;15917;50.014;8.352;2023-07-02T07:45:15;30.30;;;12.02;;
28760;SDS011;15917;50.014;8.352;2023-07-02T07:47:40;25.70;;;11.73;;
28760;SDS011;15917;50.014;8.352;2023-07-02T07:50:06;29.08;;;11.43;;
28760;SDS011;15917;50.014;8.352;2023-07-02T07:52:39;39.53;;;11.65;;
28760;SDS011;15917;50.014;8.352;2023-07-02T07:55:06;31.90;;;12.20;;
28760;SDS011;15917;50.014;8.352;2023-07-02T07:57:32;36.05;;;11.45;;
28760;SDS011;15917;50.014;8.352;2023-07-02T07:59:59;29.38;;;11.85;;
28760;SDS011;15917;50.014;8.352;2023-07-02T08:02:24;25.25;;;10.80;;
28760;SDS011;15917;50.014;8.352;2023-07-02T08:04:50;28.70;;;11.23;;
28760;SDS011;15917;50.014;8.352;2023-07-02T08:07:15;34.72;;;10.65;;
28760;SDS011;15917;50.014;8.352;2023-07-02T08:09:41;25.25;;;10.57;;
28760;SDS011;15917;50.014;8.352;2023-07-02T08:12:07;31.10;;;11.57;;
28760;SDS011;15917;50.014;8.352;2023-07-02T08:14:33;23.10;;;11.40;;
28760;SDS011;15917;50.014;8.352;2023-07-02T08:17:00;26.58;;;11.57;;
28760;SDS011;15917;50.014;8.352;2023-07-02T08:19:26;26.98;;;10.93;;
28760;SDS011;15917;50.014;8.352;2023-07-02T08:21:51;22.33;;;11.00;;
28760;SDS011;15917;50.014;8.352;2023-07-02T08:24:17;26.40;;;11.88;;
28760;SDS011;15917;50.014;8.352;2023-07-02T08:26:43;25.35;;;11.68;;
28760;SDS011;15917;50.014;8.352;2023-07-02T08:29:10;26.02;;;10.65;;
28760;SDS011;15917;50.014;8.352;2023-07-02T08:31:36;21.63;;;10.02;;
28760;SDS011;15917;50.014;8.352;2023-07-02T08:34:01;25.65;;;10.90;;
28760;SDS011;15917;50.014;8.352;2023-07-02T08:36:27;23.80;;;10.48;;
28760;SDS011;15917;50.014;8.352;2023-07-02T08:38:53;27.05;;;11.18;;
28760;SDS011;15917;50.014;8.352;2023-07-02T08:41:20;26.20;;;10.10;;
28760;SDS011;15917;50.014;8.352;2023-07-02T08:43:46;24.50;;;10.30;;
28760;SDS011;15917;50.014;8.352;2023-07-02T08:46:14;31.77;;;10.73;;
28760;SDS011;15917;50.014;8.352;2023-07-02T08:48:40;23.30;;;10.57;;
28760;SDS011;15917;50.014;8.352;2023-07-02T08:51:06;19.40;;;9.02;;
28760;SDS011;15917;50.014;8.352;2023-07-02T08:53:32;20.65;;;9.30;;
28760;SDS011;15917;50.014;8.352;2023-07-02T08:55:59;20.88;;;9.27;;
28760;SDS011;15917;50.014;8.352;2023-07-02T08:58:26;28.05;;;9.98;;
28760;SDS011;15917;50.014;8.352;2023-07-02T09:01:08;18.42;;;9.50;;
28760;SDS011;15917;50.014;8.352;2023-07-02T09:03:35;21.48;;;9.93;;
28760;SDS011;15917;50.014;8.352;2023-07-02T09:06:08;21.38;;;10.48;;
28760;SDS011;15917;50.014;8.352;2023-07-02T09:08:35;23.30;;;9.75;;
28760;SDS011;15917;50.014;8.352;2023-07-02T09:11:08;20.75;;;10.95;;
28760;SDS011;15917;50.014;8.352;2023-07-02T09:13:48;24.98;;;10.50;;
28760;SDS011;15917;50.014;8.352;2023-07-02T09:18:54;24.52;;;10.10;;
28760;SDS011;15917;50.014;8.352;2023-07-02T09:21:21;22.13;;;10.05;;
28760;SDS011;15917;50.014;8.352;2023-07-02T09:23:48;23.02;;;9.68;;
28760;SDS011;15917;50.014;8.352;2023-07-02T09:26:23;24.48;;;10.45;;
28760;SDS011;15917;50.014;8.352;2023-07-02T09:28:48;27.73;;;10.88;;
28760;SDS011;15917;50.014;8.352;2023-07-02T09:31:14;27.52;;;10.20;;
28760;SDS011;15917;50.014;8.352;2023-07-02T09:33:40;26.73;;;9.30;;
28760;SDS011;15917;50.014;8.352;2023-07-02T09:36:05;26.67;;;10.13;;
28760;SDS011;15917;50.014;8.352;2023-07-02T09:38:31;21.15;;;10.05;;
28760;SDS011;15917;50.014;8.352;2023-07-02T09:40:57;21.48;;;10.27;;
28760;SDS011;15917;50.014;8.352;2023-07-02T09:43:24;21.23;;;8.98;;
28760;SDS011;15917;50.014;8.352;2023-07-02T09:45:50;19.73;;;10.63;;
28760;SDS011;15917;50.014;8.352;2023-07-02T09:48:17;25.50;;;11.20;;
28760;SDS011;15917;50.014;8.352;2023-07-02T09:50:47;23.45;;;10.48;;
28760;SDS011;15917;50.014;8.352;2023-07-02T09:53:13;22.90;;;9.75;;
28760;SDS011;15917;50.014;8.352;2023-07-02T09:55:39;20.70;;;9.52;;
28760;SDS011;15917;50.014;8.352;2023-07-02T09:58:07;26.42;;;10.40;;
28760;SDS011;15917;50.014;8.352;2023-07-02T10:00:33;25.25;;;10.60;;
28760;SDS011;15917;50.014;8.352;2023-07-02T10:02:59;22.30;;;10.55;;
28760;SDS011;15917;50.014;8.352;2023-07-02T10:05:26;25.05;;;9.93;;
28760;SDS011;15917;50.014;8.352;2023-07-02T10:07:52;22.40;;;11.77;;
28760;SDS011;15917;50.014;8.352;2023-07-02T10:10:25;20.58;;;9.68;;
28760;SDS011;15917;50.014;8.352;2023-07-02T10:12:52;18.40;;;9.77;;
28760;SDS011;15917;50.014;8.352;2023-07-02T10:15:24;21.35;;;9.88;;
28760;SDS011;15917;50.014;8.352;2023-07-02T10:17:54;22.15;;;9.57;;
28760;SDS011;15917;50.014;8.352;2023-07-02T10:22:58;16.58;;;9.02;;
28760;SDS011;15917;50.014;8.352;2023-07-02T10:25:25;18.55;;;8.82;;
28760;SDS011;15917;50.014;8.352;2023-07-02T10:27:54;20.20;;;8.85;;
28760;SDS011;15917;50.014;8.352;2023-07-02T10:30:30;17.48;;;8.77;;
28760;SDS011;15917;50.014;8.352;2023-07-02T10:33:09;17.95;;;8.73;;
28760;SDS011;15917;50.014;8.352;2023-07-02T10:35:40;21.67;;;8.50;;
28760;SDS011;15917;50.014;8.352;2023-07-02T10:38:14;13.75;;;7.55;;
28760;SDS011;15917;50.014;8.352;2023-07-02T10:40:41;20.27;;;7.32;;
28760;SDS011;15917;50.014;8.352;2023-07-02T10:43:07;17.47;;;8.17;;
28760;SDS011;15917;50.014;8.352;2023-07-02T10:45:33;19.95;;;8.85;;
28760;SDS011;15917;50.014;8.352;2023-07-02T10:48:01;16.77;;;8.18;;
28760;SDS011;15917;50.014;8.352;2023-07-02T10:50:30;18.35;;;9.40;;
28760;SDS011;15917;50.014;8.352;2023-07-02T10:52:57;24.90;;;9.77;;
28760;SDS011;15917;50.014;8.352;2023-07-02T10:55:23;25.10;;;10.80;;
28760;SDS011;15917;50.014;8.352;2023-07-02T10:57:50;20.80;;;9.70;;
28760;SDS011;15917;50.014;8.352;2023-07-02T11:00:26;21.20;;;10.13;;
28760;SDS011;15917;50.014;8.352;2023-07-02T11:02:52;21.73;;;10.52;;
28760;SDS011;15917;50.014;8.352;2023-07-02T11:05:18;25.08;;;10.73;;
28760;SDS011;15917;50.014;8.352;2023-07-02T11:07:44;49.08;;;16.55;;
28760;SDS011;15917;50.014;8.352;2023-07-02T11:10:10;32.05;;;11.70;;
28760;SDS011;15917;50.014;8.352;2023-07-02T11:12:42;30.88;;;11.70;;
28760;SDS011;15917;50.014;8.352;2023-07-02T11:15:11;26.40;;;11.50;;
28760;SDS011;15917;50.014;8.352;2023-07-02T11:17:38;26.92;;;11.70;;
28760;SDS011;15917;50.014;8.352;2023-07-02T11:20:08;27.33;;;11.05;;
28760;SDS011;15917;50.014;8.352;2023-07-02T11:25:15;28.30;;;11.43;;
28760;SDS011;15917;50.014;8.352;2023-07-02T11:27:42;23.33;;;10.88;;
28760;SDS011;15917;50.014;8.352;2023-07-02T11:30:08;25.23;;;10.18;;
28760;SDS011;15917;50.014;8.352;2023-07-02T11:32:46;27.98;;;12.20;;
28760;SDS011;15917;50.014;8.352;2023-07-02T11:35:14;30.25;;;10.50;;
28760;SDS011;15917;50.014;8.352;2023-07-02T11:37:41;29.75;;;10.77;;
28760;SDS011;15917;50.014;8.352;2023-07-02T11:40:06;25.35;;;10.90;;
28760;SDS011;15917;50.014;8.352;2023-07-02T11:42:32;26.52;;;11.43;;
28760;SDS011;15917;50.014;8.352;2023-07-02T11:44:58;23.17;;;10.98;;
28760;SDS011;15917;50.014;8.352;2023-07-02T11:47:23;22.10;;;11.00;;
28760;SDS011;15917;50.014;8.352;2023-07-02T11:49:50;24.27;;;9.82;;
28760;SDS011;15917;50.014;8.352;2023-07-02T11:52:15;24.73;;;9.60;;
28760;SDS011;15917;50.014;8.352;2023-07-02T11:54:41;19.60;;;10.32;;
28760;SDS011;15917;50.014;8.352;2023-07-02T11:57:07;23.92;;;11.35;;
28760;SDS011;15917;50.014;8.352;2023-07-02T11:59:32;22.92;;;10.95;;
28760;SDS011;15917;50.014;8.352;2023-07-02T12:01:58;21.80;;;10.55;;
28760;SDS011;15917;50.014;8.352;2023-07-02T12:04:23;28.67;;;12.20;;
28760;SDS011;15917;50.014;8.352;2023-07-02T12:06:49;24.85;;;10.70;;
28760;SDS011;15917;50.014;8.352;2023-07-02T12:09:14;27.95;;;11.20;;
28760;SDS011;15917;50.014;8.352;2023-07-02T12:11:40;28.88;;;11.18;;
28760;SDS011;15917;50.014;8.352;2023-07-02T12:14:06;25.65;;;10.80;;
28760;SDS011;15917;50.014;8.352;2023-07-02T12:16:32;24.42;;;9.93;;
28760;SDS011;15917;50.014;8.352;2023-07-02T12:18:57;17.75;;;9.50;;
28760;SDS011;15917;50.014;8.352;2023-07-02T12:21:23;22.80;;;10.13;;
28760;SDS011;15917;50.014;8.352;2023-07-02T12:23:49;20.55;;;9.07;;
28760;SDS011;15917;50.014;8.352;2023-07-02T12:26:14;20.60;;;10.50;;
28760;SDS011;15917;50.014;8.352;2023-07-02T12:28:40;21.33;;;9.55;;
28760;SDS011;15917;50.014;8.352;2023-07-02T12:31:05;22.98;;;10.13;;
28760;SDS011;15917;50.014;8.352;2023-07-02T12:33:31;29.10;;;10.55;;
28760;SDS011;15917;50.014;8.352;2023-07-02T12:35:57;28.13;;;11.45;;
28760;SDS011;15917;50.014;8.352;2023-07-02T12:38:24;23.23;;;10.75;;
28760;SDS011;15917;50.014;8.352;2023-07-02T12:40:50;24.95;;;10.70;;
28760;SDS011;15917;50.014;8.352;2023-07-02T12:43:15;27.77;;;10.88;;
28760;SDS011;15917;50.014;8.352;2023-07-02T12:45:41;21.00;;;10.55;;
28760;SDS011;15917;50.014;8.352;2023-07-02T12:48:06;20.98;;;10.30;;
28760;SDS011;15917;50.014;8.352;2023-07-02T12:50:32;21.35;;;10.73;;
28760;SDS011;15917;50.014;8.352;2023-07-02T12:52:57;20.50;;;10.27;;
28760;SDS011;15917;50.014;8.352;2023-07-02T12:55:23;22.25;;;10.43;;
28760;SDS011;15917;50.014;8.352;2023-07-02T12:57:48;24.38;;;11.02;;
28760;SDS011;15917;50.014;8.352;2023-07-02T13:00:14;22.40;;;10.88;;
28760;SDS011;15917;50.014;8.352;2023-07-02T13:02:40;20.73;;;10.48;;
28760;SDS011;15917;50.014;8.352;2023-07-02T13:05:06;30.55;;;11.20;;
28760;SDS011;15917;50.014;8.352;2023-07-02T13:07:31;24.92;;;10.88;;
28760;SDS011;15917;50.014;8.352;2023-07-02T13:09:57;24.98;;;11.63;;
28760;SDS011;15917;50.014;8.352;2023-07-02T13:12:22;25.75;;;11.95;;
28760;SDS011;15917;50.014;8.352;2023-07-02T13:14:48;26.67;;;11.00;;
28760;SDS011;15917;50.014;8.352;2023-07-02T13:17:14;22.95;;;11.60;;
28760;SDS011;15917;50.014;8.352;2023-07-02T13:19:39;30.00;;;11.98;;
28760;SDS011;15917;50.014;8.352;2023-07-02T13:22:05;28.70;;;11.27;;
28760;SDS011;15917;50.014;8.352;2023-07-02T13:24:34;22.63;;;10.80;;
28760;SDS011;15917;50.014;8.352;2023-07-02T13:27:03;23.13;;;11.38;;
28760;SDS011;15917;50.014;8.352;2023-07-02T13:29:31;21.67;;;9.85;;
28760;SDS011;15917;50.014;8.352;2023-07-02T13:31:57;25.40;;;11.48;;
28760;SDS011;15917;50.014;8.352;2023-07-02T13:34:23;22.50;;;10.60;;
28760;SDS011;15917;50.014;8.352;2023-07-02T13:36:48;25.92;;;10.88;;
28760;SDS011;15917;50.014;8.352;2023-07-02T13:39:14;30.13;;;11.90;;
28760;SDS011;15917;50.014;8.352;2023-07-02T13:41:39;26.50;;;12.13;;
28760;SDS011;15917;50.014;8.352;2023-07-02T13:44:05;25.02;;;10.52;;
28760;SDS011;15917;50.014;8.352;2023-07-02T13:46:31;21.83;;;11.00;;
28760;SDS011;15917;50.014;8.352;2023-07-02T13:48:56;25.15;;;11.45;;
28760;SDS011;15917;50.014;8.352;2023-07-02T13:51:22;24.67;;;11.00;;
28760;SDS011;15917;50.014;8.352;2023-07-02T13:53:47;30.83;;;12.35;;
28760;SDS011;15917;50.014;8.352;2023-07-02T13:56:13;27.25;;;12.45;;
28760;SDS011;15917;50.014;8.352;2023-07-02T14:01:12;26.33;;;10.82;;
28760;SDS011;15917;50.014;8.352;2023-07-02T14:03:38;29.40;;;11.25;;
28760;SDS011;15917;50.014;8.352;2023-07-02T14:06:03;24.42;;;11.20;;
28760;SDS011;15917;50.014;8.352;2023-07-02T14:08:29;25.48;;;12.27;;
28760;SDS011;15917;50.014;8.352;2023-07-02T14:10:55;27.33;;;12.10;;
28760;SDS011;15917;50.014;8.352;2023-07-02T14:13:20;24.63;;;11.88;;
28760;SDS011;15917;50.014;8.352;2023-07-02T14:15:46;27.33;;;11.73;;
28760;SDS011;15917;50.014;8.352;2023-07-02T14:18:11;32.85;;;12.88;;
28760;SDS011;15917;50.014;8.352;2023-07-02T14:20:37;29.50;;;12.27;;
28760;SDS011;15917;50.014;8.352;2023-07-02T14:23:02;33.08;;;11.73;;
28760;SDS011;15917;50.014;8.352;2023-07-02T14:25:28;27.98;;;11.77;;
28760;SDS011;15917;50.014;8.352;2023-07-02T14:27:53;26.77;;;11.27;;
28760;SDS011;15917;50.014;8.352;2023-07-02T14:30:19;28.38;;;11.75;;
28760;SDS011;15917;50.014;8.352;2023-07-02T14:32:45;25.67;;;11.70;;
28760;SDS011;15917;50.014;8.352;2023-07-02T14:35:11;21.50;;;10.70;;
28760;SDS011;15917;50.014;8.352;2023-07-02T14:37:36;23.95;;;12.23;;
28760;SDS011;15917;50.014;8.352;2023-07-02T14:40:02;28.05;;;12.02;;